Maywood, Nebraska
Current Conditions -  °F | °C
As of 11:53 PM on Friday 19 Dec 2014 (Local Time) from KMCK Reporting Station
Clear Clear  
Wind Chill: 20°   Ceiling: Unl
Heat Index: 29°   Visibility: 10mi
Dew Point: 24°   Wind: 10mph
Humidity: 82%   Direction: 250°WSW
Pressure: 30.04"   Gusts: NA
Location:  40.66°N, 100.62°W
Report Text: KMCK 200553Z AUTO 25009KT 10SM CLR M02/M04 A3004 RMK AO2 SLP198 T10171044 10061 21033 400941106 53005
Loading
Personal Weather Stations






























Interactive Weather Map New forecast layout! Learn more

10-Day Weather Forecast

Advertisements
Track Severe Weather on mobile